Time;durP1;ratioP1;P1;durP2;ratioP2;P2;SDS_P1;SDS_P2;PMS_P1;PMS_P2;Temp;Humidity;BMP_temperature;BMP_pressure;BME280_temperature;BME280_humidity;BME280_pressure;Samples;Min_cycle;Max_cycle;Signal;HPM_P1;HPM_P2
2022/09/19 00:01:44;;;;;;;1.80;1.70;;;;;;;9.97;75.67;94948.25;5054840;28;20487;-89
2022/09/19 00:04:13;;;;;;;2.13;2.03;;;;;;;9.96;74.73;94935.25;5055191;28;20874;-88
2022/09/19 00:06:43;;;;;;;2.27;2.10;;;;;;;10.06;74.57;94944.84;5054511;28;20450;-87
2022/09/19 00:09:12;;;;;;;2.00;1.90;;;;;;;9.98;74.54;94939.41;5055104;28;20463;-89
2022/09/19 00:11:41;;;;;;;4.67;2.30;;;;;;;10.01;75.06;94940.97;5053795;28;20452;-89
2022/09/19 00:14:09;;;;;;;2.70;2.30;;;;;;;10.05;74.46;94951.06;5054540;28;20463;-87
2022/09/19 00:16:40;;;;;;;3.70;2.30;;;;;;;9.90;74.45;94934.81;5054437;28;20460;-89
2022/09/19 00:19:10;;;;;;;2.10;1.90;;;;;;;10.06;73.91;94944.03;5054721;28;20456;-88
2022/09/19 00:21:41;;;;;;;4.23;1.90;;;;;;;10.04;74.68;94941.53;5054390;28;20837;-87
2022/09/19 00:26:55;;;;;;;1.93;1.80;;;;;;;9.65;77.46;94929.88;5054377;28;20447;-90
2022/09/19 00:29:23;;;;;;;3.30;3.10;;;;;;;9.17;80.47;94939.84;5054564;28;20898;-89
2022/09/19 00:31:52;;;;;;;3.93;3.00;;;;;;;9.17;80.64;94934.59;5053825;28;20778;-90
2022/09/19 00:34:20;;;;;;;3.37;3.07;;;;;;;9.08;81.08;94933.56;5054287;28;20529;-89
2022/09/19 00:36:47;;;;;;;5.60;3.10;;;;;;;9.14;80.99;94940.91;5035320;28;20442;-89
2022/09/19 00:39:16;;;;;;;3.33;3.10;;;;;;;9.15;80.98;94929.50;5054360;28;20455;-87
2022/09/19 00:41:44;;;;;;;5.73;3.20;;;;;;;9.15;81.82;94934.72;5054190;28;20477;-88
2022/09/19 00:44:45;;;;;;;3.10;2.90;;;;;;;9.20;82.25;94945.66;5054295;28;20454;-89
2022/09/19 00:47:20;;;;;;;4.47;4.10;;;;;;;8.96;82.64;94935.34;5054425;28;20452;-89
2022/09/19 00:49:50;;;;;;;6.47;3.67;;;;;;;9.06;83.22;94937.25;5054451;28;20449;-89
2022/09/19 00:52:22;;;;;;;4.63;4.20;;;;;;;9.11;82.86;94941.16;5054096;28;20461;-89
2022/09/19 00:54:51;;;;;;;6.63;3.80;;;;;;;9.12;82.67;94936.75;5054160;28;20452;-89
2022/09/19 00:57:18;;;;;;;7.67;3.63;;;;;;;9.13;82.66;94928.78;5053890;28;20550;-88
2022/09/19 00:59:49;;;;;;;6.23;4.50;;;;;;;9.18;82.42;94926.63;5053957;28;20474;-88
2022/09/19 01:02:22;;;;;;;5.40;3.93;;;;;;;9.30;82.43;94935.31;5053659;28;20486;-89
2022/09/19 01:04:49;;;;;;;3.97;3.67;;;;;;;9.38;82.46;94937.31;5053906;28;20940;-86
2022/09/19 01:07:28;;;;;;;11.10;3.37;;;;;;;9.38;81.80;94942.56;5053645;28;20459;-89
2022/09/19 01:10:02;;;;;;;4.57;4.17;;;;;;;9.40;81.96;94938.03;5053766;28;20442;-89
2022/09/19 01:12:44;;;;;;;4.07;3.70;;;;;;;9.42;81.74;94934.34;5053596;28;20439;-89
2022/09/19 01:15:21;;;;;;;3.47;3.27;;;;;;;9.47;81.83;94928.72;5053130;28;20458;-88
2022/09/19 01:17:52;;;;;;;3.17;2.97;;;;;;;9.49;80.93;94932.06;5053726;28;20449;-89
2022/09/19 01:20:50;;;;;;;3.50;3.30;;;;;;;9.57;80.69;94942.78;5053603;28;20454;-88
2022/09/19 01:23:39;;;;;;;3.00;2.70;;;;;;;9.56;80.42;94931.47;5057992;28;20469;-89
2022/09/19 01:26:20;;;;;;;4.63;2.30;;;;;;;9.57;80.18;94937.53;5056152;28;20435;-88
2022/09/19 01:28:54;;;;;;;4.30;2.80;;;;;;;9.53;79.99;94925.63;5057557;28;20940;-87
2022/09/19 01:31:27;;;;;;;2.50;2.30;;;;;;;9.53;79.45;94930.84;5057459;28;20445;-88
2022/09/19 01:34:02;;;;;;;3.00;2.80;;;;;;;9.48;79.33;94925.16;5057847;28;20944;-89
2022/09/19 01:36:34;;;;;;;2.70;2.50;;;;;;;9.47;79.39;94926.13;5057632;28;20457;-89
2022/09/19 01:39:04;;;;;;;2.00;1.90;;;;;;;9.46;79.33;94919.22;5057359;28;20450;-87
2022/09/19 01:41:31;;;;;;;2.00;1.90;;;;;;;9.47;79.42;94910.41;5057201;28;20488;-89
2022/09/19 01:44:05;;;;;;;1.70;1.60;;;;;;;9.43;79.29;94911.59;5056953;28;20441;-89
2022/09/19 01:46:45;;;;;;;2.17;2.00;;;;;;;9.46;79.36;94913.97;5057346;28;20824;-90
2022/09/19 01:49:23;;;;;;;1.80;1.70;;;;;;;9.41;78.83;94905.66;5057240;28;20450;-89
2022/09/19 01:51:55;;;;;;;1.70;1.60;;;;;;;9.37;79.62;94906.84;5057269;28;20954;-88
2022/09/19 01:54:36;;;;;;;1.87;1.77;;;;;;;9.30;79.90;94898.66;5057068;28;20520;-88
2022/09/19 01:57:13;;;;;;;1.77;1.67;;;;;;;9.28;80.15;94904.03;5057579;28;20871;-89
2022/09/19 01:59:52;;;;;;;2.03;1.73;;;;;;;9.21;80.22;94894.97;5038344;28;20477;-88
2022/09/19 02:02:33;;;;;;;1.77;1.60;;;;;;;9.19;79.89;94902.13;5056844;28;20898;-89
2022/09/19 02:05:08;;;;;;;1.83;1.70;;;;;;;9.22;79.13;94894.00;5056991;28;20992;-88
2022/09/19 02:07:42;;;;;;;2.10;1.90;;;;;;;9.19;78.97;94891.66;5056840;28;21600;-90
2022/09/19 02:10:14;;;;;;;1.80;1.70;;;;;;;9.26;78.80;94889.41;5057026;28;20965;-90
2022/09/19 02:12:44;;;;;;;2.80;1.77;;;;;;;9.24;78.82;94886.03;5056694;28;20871;-90
2022/09/19 02:15:16;;;;;;;2.43;1.63;;;;;;;9.31;79.05;94898.53;5056773;28;20434;-89
2022/09/19 02:17:50;;;;;;;2.63;1.77;;;;;;;9.33;79.42;94893.19;5056802;28;20449;-89
2022/09/19 02:20:22;;;;;;;2.10;1.83;;;;;;;9.29;78.97;94892.59;5057067;28;20501;-89
2022/09/19 02:22:52;;;;;;;2.13;1.80;;;;;;;9.36;79.10;94895.56;5056810;28;20486;-89
2022/09/19 02:25:23;;;;;;;2.30;2.20;;;;;;;9.36;79.05;94886.88;5056621;28;20446;-88
2022/09/19 02:27:52;;;;;;;1.90;1.77;;;;;;;9.32;78.67;94891.53;5056578;28;20971;-88
2022/09/19 02:30:21;;;;;;;1.87;1.77;;;;;;;9.30;78.79;94883.78;5056184;28;20446;-88
2022/09/19 02:32:49;;;;;;;3.20;1.83;;;;;;;9.32;78.60;94892.34;5056057;28;20461;-88
2022/09/19 02:35:20;;;;;;;2.07;1.87;;;;;;;9.23;79.32;94890.44;5056380;28;20453;-89
2022/09/19 02:37:54;;;;;;;4.97;2.00;;;;;;;9.23;79.09;94893.06;5056322;28;20536;-89
2022/09/19 02:40:26;;;;;;;4.03;2.00;;;;;;;9.20;79.50;94893.31;5056112;28;20454;-88
2022/09/19 02:42:58;;;;;;;2.67;2.47;;;;;;;9.18;78.99;94889.16;5056118;28;20478;-89
2022/09/19 02:45:32;;;;;;;5.13;2.20;;;;;;;9.15;79.34;94890.22;5056240;28;20450;-90
2022/09/19 02:48:04;;;;;;;2.70;1.67;;;;;;;9.14;79.59;94888.56;5056348;28;20506;-90
2022/09/19 02:50:39;;;;;;;3.97;1.83;;;;;;;9.13;79.47;94892.13;5055841;28;20465;-89
2022/09/19 02:53:16;;;;;;;2.60;1.83;;;;;;;9.01;79.05;94885.25;5055780;28;20433;-89
2022/09/19 02:55:47;;;;;;;4.03;1.80;;;;;;;9.05;79.08;94893.69;5056375;28;20441;-89
2022/09/19 02:58:16;;;;;;;3.30;1.73;;;;;;;9.12;78.67;94889.63;5056174;28;20449;-89
2022/09/19 03:00:52;;;;;;;4.50;1.87;;;;;;;9.09;79.05;94895.94;5055905;28;20480;-89
2022/09/19 03:06:12;;;;;;;1.70;1.60;;;;;;;9.05;79.07;94897.16;5055778;28;20795;-89
2022/09/19 03:08:40;;;;;;;2.43;1.80;;;;;;;8.99;79.51;94893.25;5055656;28;20457;-89
2022/09/19 03:11:12;;;;;;;4.13;2.17;;;;;;;8.95;79.44;94890.94;5055661;28;20453;-89
2022/09/19 03:13:41;;;;;;;2.63;1.70;;;;;;;8.89;79.37;94894.88;5055912;28;20450;-90
2022/09/19 03:16:12;;;;;;;1.77;1.57;;;;;;;8.88;79.86;94889.78;5055432;28;20458;-88
2022/09/19 03:18:40;;;;;;;1.67;1.57;;;;;;;8.84;80.45;94893.59;5055772;28;20450;-89
2022/09/19 03:21:09;;;;;;;5.20;2.00;;;;;;;8.82;80.44;94898.94;5055227;28;20446;-89
2022/09/19 03:23:40;;;;;;;5.17;2.00;;;;;;;8.83;79.86;94897.16;5055673;28;20493;-90
2022/09/19 03:26:10;;;;;;;1.57;1.47;;;;;;;8.75;79.35;94883.84;5053506;28;20434;-88
2022/09/19 03:28:37;;;;;;;1.67;1.57;;;;;;;8.71;79.37;94895.50;5055211;28;20449;-88
2022/09/19 03:31:05;;;;;;;3.20;1.80;;;;;;;8.72;78.89;94897.16;5055262;28;20449;-90
2022/09/19 03:33:33;;;;;;;2.30;2.10;;;;;;;8.69;78.97;94900.84;5021032;28;20456;-89
2022/09/19 03:36:06;;;;;;;1.83;1.57;;;;;;;8.72;78.85;94910.25;5056587;28;20443;-90
2022/09/19 03:38:32;;;;;;;1.70;1.60;;;;;;;8.73;78.82;94896.22;5056754;28;20453;-90
2022/09/19 03:40:59;;;;;;;1.80;1.70;;;;;;;8.78;78.81;94908.00;5056174;28;20941;-90
2022/09/19 03:43:29;;;;;;;2.50;2.30;;;;;;;8.81;78.81;94897.28;5056195;28;20461;-89
2022/09/19 03:45:56;;;;;;;1.93;1.77;;;;;;;8.85;78.99;94892.63;5055399;28;20461;-89
2022/09/19 03:48:24;;;;;;;1.80;1.70;;;;;;;8.81;79.47;94891.22;5055887;28;20480;-90
2022/09/19 03:50:53;;;;;;;1.83;1.73;;;;;;;8.75;79.67;94891.69;5056129;28;20485;-90
2022/09/19 03:53:21;;;;;;;1.73;1.63;;;;;;;8.82;79.25;94885.03;5056677;28;20450;-91
2022/09/19 03:55:48;;;;;;;2.10;1.90;;;;;;;8.74;79.88;94866.50;5055784;28;20438;-89
2022/09/19 03:58:17;;;;;;;2.53;1.87;;;;;;;8.85;79.23;94880.38;5021617;28;20450;-90
2022/09/19 04:00:44;;;;;;;2.10;2.00;;;;;;;8.80;80.06;94876.47;5056272;28;20482;-93
2022/09/19 04:03:11;;;;;;;2.30;2.10;;;;;;;8.76;79.86;94865.41;5056080;28;20485;-92
2022/09/19 04:05:38;;;;;;;1.97;1.80;;;;;;;8.76;79.67;94872.44;5055677;28;20454;-90
2022/09/19 04:08:07;;;;;;;4.03;2.30;;;;;;;8.76;79.91;94868.03;5056096;28;20456;-91
2022/09/19 04:10:34;;;;;;;6.03;2.53;;;;;;;8.74;80.38;94869.09;5055503;28;20483;-91
2022/09/19 04:13:01;;;;;;;2.10;1.93;;;;;;;8.74;79.73;94866.50;5055309;28;20450;-91
2022/09/19 04:15:28;;;;;;;2.30;2.10;;;;;;;8.71;80.29;94864.94;5056000;28;20819;-87
2022/09/19 04:17:55;;;;;;;3.20;1.90;;;;;;;8.66;80.14;94862.66;5055426;28;20467;-88
2022/09/19 04:20:29;;;;;;;5.63;2.43;;;;;;;8.69;83.09;94862.44;5055242;28;20450;-88
2022/09/19 04:22:59;;;;;;;4.27;1.90;;;;;;;8.82;85.09;94856.25;5055063;28;20576;-91
2022/09/19 04:25:32;;;;;;;2.03;1.93;;;;;;;8.98;83.78;94869.81;5055149;28;20454;-90
2022/09/19 04:28:03;;;;;;;2.00;1.83;;;;;;;9.05;81.48;94857.88;5054882;28;20454;-86
2022/09/19 04:30:49;;;;;;;4.33;2.13;;;;;;;9.07;80.50;94868.25;5054741;28;20462;-87
2022/09/19 04:33:18;;;;;;;2.20;2.00;;;;;;;8.96;80.60;94855.97;5054609;28;20837;-88
2022/09/19 04:35:45;;;;;;;2.43;2.23;;;;;;;8.87;79.78;94870.63;5054651;28;20442;-87
2022/09/19 04:38:16;;;;;;;3.53;3.23;;;;;;;8.22;83.00;94879.13;5054965;28;20451;-86
2022/09/19 04:40:46;;;;;;;11.70;4.70;;;;;;;7.65;86.83;94871.25;5054299;28;20438;-87
2022/09/19 04:43:15;;;;;;;8.23;4.93;;;;;;;7.45;88.78;94873.53;5054332;28;20481;-87
2022/09/19 04:52:34;;;;;;;12.67;5.57;;;;;;;7.60;87.88;94873.38;5053927;28;20926;-86
2022/09/19 04:55:01;;;;;;;11.43;5.97;;;;;;;7.65;88.08;94863.41;5053757;28;20550;-86
2022/09/19 04:57:30;;;;;;;13.10;5.47;;;;;;;7.65;88.25;94851.19;5053203;28;20459;-85
2022/09/19 04:59:56;;;;;;;12.77;5.53;;;;;;;7.69;89.04;94860.47;5053914;28;20484;-85
2022/09/19 05:02:23;;;;;;;8.87;5.33;;;;;;;7.80;89.61;94867.47;5035190;28;20488;-86
2022/09/19 05:04:51;;;;;;;7.10;5.00;;;;;;;7.97;92.17;94853.19;5053759;28;20457;-86
2022/09/19 05:07:19;;;;;;;6.90;4.10;;;;;;;8.00;88.93;94852.94;5053903;28;20438;-86
2022/09/19 05:09:45;;;;;;;11.00;4.50;;;;;;;8.10;88.34;94868.78;5053608;28;20449;-85
2022/09/19 05:12:12;;;;;;;4.63;4.23;;;;;;;8.03;88.62;94871.00;5044939;28;20437;-86
2022/09/19 05:14:41;;;;;;;5.50;4.60;;;;;;;8.34;87.88;94861.69;5060232;28;20461;-86
2022/09/19 05:17:07;;;;;;;6.70;5.63;;;;;;;8.73;87.68;94868.28;5045933;28;20943;-85
2022/09/19 05:19:36;;;;;;;6.70;6.10;;;;;;;9.31;84.80;94869.75;5052203;28;20925;-85
2022/09/19 05:22:03;;;;;;;9.00;5.43;;;;;;;10.07;81.61;94880.97;5052275;28;20480;-85
2022/09/19 05:24:29;;;;;;;5.40;5.00;;;;;;;10.76;79.70;94859.47;5052074;28;20451;-86
2022/09/19 05:26:58;;;;;;;5.47;5.07;;;;;;;11.48;76.07;94885.50;5017436;28;20470;-85
2022/09/19 05:29:25;;;;;;;6.53;5.73;;;;;;;12.12;73.22;94890.28;5051943;28;20452;-85
2022/09/19 05:31:54;;;;;;;7.13;5.83;;;;;;;12.84;71.29;94891.56;5052305;28;20875;-85
2022/09/19 05:34:21;;;;;;;7.50;6.23;;;;;;;13.30;68.13;94896.81;5052016;28;20834;-84
2022/09/19 05:36:48;;;;;;;5.70;5.27;;;;;;;13.60;65.81;94898.31;5052057;28;20442;-85
2022/09/19 05:39:15;;;;;;;7.50;5.13;;;;;;;13.77;64.16;94895.81;5052115;28;20441;-86
2022/09/19 05:41:42;;;;;;;4.87;4.37;;;;;;;13.82;64.15;94906.75;5051893;28;20483;-86
2022/09/19 05:44:08;;;;;;;5.40;4.90;;;;;;;13.97;64.91;94905.25;5051898;28;20441;-86
2022/09/19 05:46:35;;;;;;;5.50;4.63;;;;;;;14.00;64.63;94914.69;5051895;28;20449;-85
2022/09/19 05:49:05;;;;;;;9.70;5.00;;;;;;;14.42;63.99;94912.25;5051927;28;20790;-85
2022/09/19 05:51:32;;;;;;;4.77;4.20;;;;;;;14.92;62.20;94914.28;5052015;28;20554;-85
2022/09/19 05:53:58;;;;;;;5.60;5.00;;;;;;;15.17;60.24;94910.81;5051937;28;20457;-86
2022/09/19 05:56:25;;;;;;;4.50;4.10;;;;;;;14.97;60.17;94914.66;5051565;28;20449;-85
2022/09/19 05:58:56;;;;;;;8.70;4.43;;;;;;;15.29;60.61;94903.41;5051567;28;20238;-86
2022/09/19 06:01:23;;;;;;;4.50;3.80;;;;;;;15.63;59.02;94898.16;5051738;28;20453;-85
2022/09/19 06:03:50;;;;;;;3.90;3.37;;;;;;;15.32;58.36;94906.56;5051434;28;20487;-85
2022/09/19 06:06:19;;;;;;;13.13;4.07;;;;;;;15.45;58.23;94892.91;5051995;28;20455;-85
2022/09/19 06:08:48;;;;;;;5.10;3.27;;;;;;;15.50;58.80;94894.09;5053253;28;20458;-85
2022/09/19 06:11:15;;;;;;;4.27;3.87;;;;;;;15.63;58.34;94903.44;5055612;28;20456;-85
2022/09/19 06:16:26;;;;;;;4.40;4.10;;;;;;;16.29;57.22;94897.28;5055129;28;20935;-86
2022/09/19 06:18:53;;;;;;;4.67;4.27;;;;;;;16.47;56.22;94895.28;5055470;28;20537;-86
2022/09/19 06:21:21;;;;;;;4.20;3.80;;;;;;;16.82;55.18;94888.00;5055201;28;20870;-86
2022/09/19 06:23:48;;;;;;;6.10;5.40;;;;;;;17.11;54.26;94904.19;5054962;28;20481;-86
2022/09/19 06:26:17;;;;;;;4.53;4.10;;;;;;;16.93;54.53;94903.56;5055061;28;20959;-86
2022/09/19 06:28:46;;;;;;;4.30;3.90;;;;;;;16.96;54.43;94901.41;5055216;28;20757;-86
2022/09/19 06:31:13;;;;;;;3.50;3.30;;;;;;;17.16;53.32;94907.16;5055346;28;20821;-86
2022/09/19 06:33:42;;;;;;;4.97;4.30;;;;;;;17.21;52.62;94899.50;5054796;28;20449;-86
2022/09/19 06:36:11;;;;;;;6.83;4.83;;;;;;;17.21;52.94;94912.78;5055174;28;20893;-85
2022/09/19 06:38:40;;;;;;;5.20;4.00;;;;;;;17.38;52.33;94907.44;5054782;28;20450;-85
2022/09/19 06:41:08;;;;;;;4.73;4.33;;;;;;;17.61;51.88;94903.00;5055084;28;20445;-85
2022/09/19 06:43:35;;;;;;;10.03;4.30;;;;;;;17.92;50.71;94887.94;5054606;28;20485;-85
2022/09/19 06:46:03;;;;;;;4.50;4.10;;;;;;;18.01;50.66;94899.38;5054917;28;20438;-86
2022/09/19 06:48:30;;;;;;;4.13;3.73;;;;;;;17.85;51.66;94894.97;5054765;28;20477;-86
2022/09/19 06:50:57;;;;;;;16.93;4.23;;;;;;;18.15;50.74;94887.97;5035798;28;20485;-86
2022/09/19 06:53:24;;;;;;;22.43;4.83;;;;;;;18.58;50.54;94889.16;5054777;28;20446;-85
2022/09/19 06:55:52;;;;;;;4.33;3.80;;;;;;;18.57;49.39;94884.03;5054976;28;20808;-86
2022/09/19 06:58:19;;;;;;;9.67;4.40;;;;;;;18.84;50.08;94893.28;5054772;28;20446;-85
2022/09/19 07:00:46;;;;;;;6.40;3.90;;;;;;;18.96;48.63;94888.34;5054705;28;20516;-86
2022/09/19 07:03:16;;;;;;;8.90;3.80;;;;;;;19.15;48.86;94879.84;5035687;28;20480;-86
2022/09/19 07:05:45;;;;;;;14.30;4.93;;;;;;;19.42;49.03;94881.03;5054692;28;20947;-86
2022/09/19 07:08:13;;;;;;;8.60;3.70;;;;;;;19.61;48.89;94867.16;5054481;28;20480;-85
2022/09/19 07:10:40;;;;;;;5.17;4.30;;;;;;;19.83;47.01;94872.56;5054708;28;20437;-85
2022/09/19 07:13:13;;;;;;;7.50;4.13;;;;;;;19.83;47.36;94861.91;5054267;28;20439;-85
2022/09/19 07:15:40;;;;;;;12.80;3.97;;;;;;;19.99;46.29;94854.53;5035587;28;20445;-85
2022/09/19 07:18:08;;;;;;;9.40;3.03;;;;;;;19.99;46.16;94848.38;5054111;28;20449;-85
2022/09/19 07:20:36;;;;;;;4.13;3.17;;;;;;;20.17;46.00;94850.59;5054070;28;20441;-85
2022/09/19 07:23:04;;;;;;;3.80;3.50;;;;;;;19.80;46.16;94847.13;5054210;28;20517;-86
2022/09/19 07:25:32;;;;;;;7.03;3.87;;;;;;;19.88;46.93;94849.66;5054561;28;20450;-85
2022/09/19 07:28:02;;;;;;;4.10;3.40;;;;;;;19.92;45.06;94850.94;5054202;28;20450;-86
2022/09/19 07:30:31;;;;;;;3.20;2.90;;;;;;;19.94;44.93;94853.41;5053972;28;20452;-86
2022/09/19 07:32:59;;;;;;;9.23;2.67;;;;;;;19.96;44.88;94840.75;5054352;28;20928;-85
2022/09/19 07:35:27;;;;;;;4.07;2.93;;;;;;;20.10;44.83;94845.19;5053965;28;21054;-86
2022/09/19 07:37:55;;;;;;;4.00;2.87;;;;;;;20.34;45.22;94844.00;5053739;28;20449;-85
2022/09/19 07:40:22;;;;;;;4.10;2.80;;;;;;;20.22;45.24;94843.66;5053791;28;20453;-86
2022/09/19 07:42:50;;;;;;;3.70;2.80;;;;;;;19.91;45.65;94848.47;5053592;28;20489;-85
2022/09/19 07:45:18;;;;;;;4.53;4.13;;;;;;;19.84;44.48;94840.41;5054196;28;20477;-85
2022/09/19 07:47:47;;;;;;;4.87;4.37;;;;;;;19.73;45.32;94830.25;5053591;28;20438;-85
2022/09/19 07:50:16;;;;;;;7.00;3.77;;;;;;;19.91;45.92;94827.97;5053507;28;20441;-86
2022/09/19 07:52:45;;;;;;;4.27;3.53;;;;;;;19.73;44.70;94830.25;5053456;28;20438;-86
2022/09/19 07:55:12;;;;;;;2.90;2.70;;;;;;;19.55;45.81;94827.16;5053799;28;20532;-85
2022/09/19 07:57:39;;;;;;;4.10;3.07;;;;;;;19.56;46.42;94823.50;5053206;28;20445;-85
2022/09/19 08:00:07;;;;;;;4.47;3.33;;;;;;;19.46;46.49;94824.59;5053592;28;20465;-86
2022/09/19 08:02:34;;;;;;;3.30;2.80;;;;;;;19.39;46.46;94823.69;5053532;28;20788;-85
2022/09/19 08:05:02;;;;;;;6.30;2.90;;;;;;;19.36;47.17;94808.06;5053422;28;20437;-86
2022/09/19 08:07:29;;;;;;;3.00;2.77;;;;;;;19.42;47.72;94814.50;5053125;28;20504;-85
2022/09/19 08:09:56;;;;;;;7.07;2.77;;;;;;;19.58;46.86;94819.63;5053480;28;20964;-86
2022/09/19 08:12:23;;;;;;;2.83;2.63;;;;;;;19.62;46.31;94817.41;5053205;28;20489;-86
2022/09/19 08:14:50;;;;;;;29.97;13.83;;;;;;;19.48;47.47;94814.56;5052978;28;20500;-86
2022/09/19 08:17:16;;;;;;;3.90;3.60;;;;;;;19.08;47.41;94809.75;5053088;28;20925;-86
2022/09/19 08:19:44;;;;;;;4.43;2.83;;;;;;;18.94;47.29;94806.09;5053205;28;20454;-86
2022/09/19 08:22:13;;;;;;;3.00;2.80;;;;;;;19.01;48.08;94799.03;5053507;28;20489;-86
2022/09/19 08:24:39;;;;;;;3.50;3.07;;;;;;;18.93;47.57;94800.94;5052887;28;20507;-86
2022/09/19 08:27:06;;;;;;;2.97;2.77;;;;;;;18.64;47.74;94785.81;5053092;28;20446;-87
2022/09/19 08:29:33;;;;;;;3.00;2.70;;;;;;;18.69;49.15;94799.38;5053211;28;20864;-86
2022/09/19 08:32:02;;;;;;;3.17;2.67;;;;;;;18.73;49.70;94790.84;5052474;28;20442;-87
2022/09/19 08:34:29;;;;;;;4.43;3.00;;;;;;;18.61;49.60;94796.78;5052743;28;20442;-86
2022/09/19 08:36:58;;;;;;;4.90;3.40;;;;;;;18.76;49.77;94797.63;5053077;28;20450;-86
2022/09/19 08:39:27;;;;;;;3.57;3.00;;;;;;;18.88;50.13;94805.00;5052877;28;20445;-86
2022/09/19 08:42:10;;;;;;;3.30;2.37;;;;;;;18.83;49.32;94803.91;5052875;28;20449;-86
2022/09/19 08:44:49;;;;;;;3.87;2.90;;;;;;;18.54;49.26;94797.50;5052622;28;20526;-86
2022/09/19 08:47:19;;;;;;;4.20;2.77;;;;;;;18.48;49.34;94786.75;5052915;28;20446;-86
2022/09/19 08:49:52;;;;;;;5.37;2.53;;;;;;;18.44;49.60;94791.59;5053074;28;20442;-86
2022/09/19 08:52:29;;;;;;;8.60;3.13;;;;;;;18.38;47.89;94795.00;5053001;28;20956;-86
2022/09/19 08:55:00;;;;;;;14.20;2.73;;;;;;;18.44;48.54;94783.63;5052656;28;20458;-86
2022/09/19 08:57:31;;;;;;;3.23;2.93;;;;;;;18.68;48.35;94781.78;5052784;28;20488;-86
2022/09/19 09:00:03;;;;;;;3.83;2.80;;;;;;;18.85;47.93;94777.94;5052013;28;20478;-86
2022/09/19 09:02:42;;;;;;;3.70;3.00;;;;;;;18.93;46.77;94787.66;5052828;28;20440;-86
2022/09/19 09:05:14;;;;;;;4.13;2.97;;;;;;;19.02;46.80;94784.72;5052660;28;20444;-86
2022/09/19 09:07:53;;;;;;;8.43;2.70;;;;;;;18.96;45.48;94785.44;5052473;28;20450;-85
2022/09/19 09:10:38;;;;;;;3.80;3.10;;;;;;;19.04;45.52;94781.88;5052649;28;20495;-86
2022/09/19 09:13:17;;;;;;;4.83;3.13;;;;;;;19.10;47.03;94781.16;5052663;28;20448;-86
2022/09/19 09:15:58;;;;;;;5.23;3.47;;;;;;;19.11;47.00;94780.97;5052365;28;20442;-86
2022/09/19 09:18:44;;;;;;;7.60;3.60;;;;;;;19.10;45.77;94783.81;5052482;28;20863;-86
2022/09/19 09:21:17;;;;;;;16.63;4.13;;;;;;;19.19;46.13;94786.19;5052394;28;20457;-85
2022/09/19 09:23:49;;;;;;;6.40;3.13;;;;;;;19.11;43.97;94780.13;5052401;28;20478;-87
2022/09/19 09:26:21;;;;;;;9.10;2.90;;;;;;;18.99;45.15;94786.91;5052436;28;20450;-86
2022/09/19 09:28:55;;;;;;;8.57;3.47;;;;;;;19.05;46.19;94773.69;5052222;28;20440;-86
2022/09/19 09:31:27;;;;;;;13.20;3.50;;;;;;;18.98;47.02;94761.34;5052201;28;20457;-86
2022/09/19 09:33:58;;;;;;;3.90;3.53;;;;;;;18.85;46.63;94768.13;5052094;28;20461;-86
2022/09/19 09:36:31;;;;;;;5.07;3.40;;;;;;;18.73;47.33;94750.97;5052673;28;20446;-86
2022/09/19 09:39:03;;;;;;;6.90;3.30;;;;;;;18.74;44.87;94739.34;5052194;28;20446;-87
2022/09/19 09:41:47;;;;;;;2.90;2.57;;;;;;;18.83;44.18;94738.25;5052438;28;20550;-88
2022/09/19 09:44:43;;;;;;;3.20;2.40;;;;;;;18.95;42.69;94724.47;5054663;28;20523;-86
2022/09/19 09:47:24;;;;;;;2.57;1.93;;;;;;;19.08;41.21;94714.00;5055983;28;20940;-87
2022/09/19 09:49:53;;;;;;;4.53;1.93;;;;;;;19.25;41.43;94715.44;5056150;28;20498;-86
2022/09/19 09:52:32;;;;;;;4.50;2.03;;;;;;;19.45;40.66;94721.81;5055593;28;20456;-85
2022/09/19 09:58:08;;;;;;;6.03;2.10;;;;;;;19.31;39.13;94716.50;5056219;28;20812;-87
2022/09/19 10:03:39;;;;;;;2.00;1.30;;;;;;;19.16;37.33;94716.56;5055987;28;20475;-86
2022/09/19 10:06:11;;;;;;;4.20;1.77;;;;;;;19.16;35.51;94717.38;5055563;28;20445;-87
2022/09/19 10:08:45;;;;;;;3.40;1.80;;;;;;;19.20;37.44;94717.84;5056154;28;20430;-86
2022/09/19 10:11:17;;;;;;;3.70;1.90;;;;;;;19.13;37.94;94711.63;5056041;28;20450;-87
2022/09/19 10:13:51;;;;;;;2.43;1.80;;;;;;;18.97;38.51;94711.81;5055781;28;20474;-86
2022/09/19 10:16:20;;;;;;;2.37;1.93;;;;;;;18.82;38.23;94685.25;5055835;28;20468;-86
2022/09/19 10:18:53;;;;;;;5.37;2.27;;;;;;;18.85;38.60;94693.69;5055362;28;20940;-86
2022/09/19 10:21:20;;;;;;;3.90;1.97;;;;;;;19.08;39.63;94692.72;5056219;28;20465;-86
2022/09/19 10:23:47;;;;;;;1.97;1.70;;;;;;;19.22;39.04;94696.38;5055526;28;20480;-86
2022/09/19 10:26:22;;;;;;;2.20;1.83;;;;;;;19.27;38.71;94701.94;5055533;28;20540;-87
2022/09/19 10:28:53;;;;;;;2.00;1.50;;;;;;;18.87;38.21;94688.19;5055672;28;20522;-85
2022/09/19 10:31:24;;;;;;;1.67;1.57;;;;;;;19.04;37.86;94686.94;5055398;28;20437;-87
2022/09/19 10:33:52;;;;;;;1.80;1.70;;;;;;;19.14;37.85;94681.34;5055246;28;20530;-87
2022/09/19 10:36:22;;;;;;;1.97;1.50;;;;;;;19.23;37.63;94679.38;5055351;28;20483;-86
2022/09/19 10:38:58;;;;;;;10.83;3.50;;;;;;;19.36;38.84;94676.84;5055462;28;21006;-87
2022/09/19 10:41:26;;;;;;;1.90;1.70;;;;;;;19.52;37.52;94667.81;5055310;28;20448;-86
2022/09/19 10:43:57;;;;;;;3.53;2.20;;;;;;;19.41;37.22;94662.00;5055224;28;20505;-86
2022/09/19 10:46:31;;;;;;;4.47;2.40;;;;;;;19.45;36.40;94663.25;5055131;28;20523;-86
2022/09/19 10:48:59;;;;;;;3.10;2.53;;;;;;;19.53;37.62;94654.34;5055386;28;20452;-86
2022/09/19 10:51:33;;;;;;;2.13;1.90;;;;;;;19.57;39.55;94639.63;5055508;28;20452;-87
2022/09/19 10:54:01;;;;;;;2.07;1.90;;;;;;;19.65;37.82;94647.47;5054432;28;20481;-88
2022/09/19 10:56:34;;;;;;;4.60;1.80;;;;;;;19.72;37.01;94637.72;5054818;28;20457;-86
2022/09/19 10:59:06;;;;;;;3.07;2.20;;;;;;;19.75;36.14;94631.19;5054768;28;20558;-86
2022/09/19 11:01:34;;;;;;;2.83;1.87;;;;;;;19.72;36.76;94642.25;5054975;28;20458;-87
2022/09/19 11:04:04;;;;;;;8.73;1.93;;;;;;;19.77;37.14;94637.16;5054837;28;20980;-86
2022/09/19 11:06:32;;;;;;;1.97;1.67;;;;;;;19.76;36.38;94619.53;5055218;28;20817;-87
2022/09/19 11:09:00;;;;;;;2.97;2.10;;;;;;;19.79;36.58;94627.13;5054755;28;20445;-87
2022/09/19 11:11:37;;;;;;;2.00;1.80;;;;;;;19.82;36.17;94617.94;5055028;28;20461;-87
2022/09/19 11:14:18;;;;;;;3.10;1.87;;;;;;;19.82;36.87;94617.94;5054986;28;20440;-87
2022/09/19 11:17:29;;;;;;;2.33;1.90;;;;;;;19.79;36.39;94617.31;5054945;28;20465;-87
2022/09/19 11:20:17;;;;;;;2.70;1.90;;;;;;;19.78;35.97;94596.19;4935039;29;20542;-87
2022/09/19 11:23:10;;;;;;;3.57;1.60;;;;;;;19.89;36.97;94594.81;4934727;29;20447;-86
2022/09/19 11:25:42;;;;;;;3.17;2.10;;;;;;;20.01;37.54;94609.28;4934761;29;20486;-87
2022/09/19 11:28:21;;;;;;;2.80;1.90;;;;;;;20.09;36.17;94606.44;4934902;29;20836;-87
2022/09/19 11:31:02;;;;;;;1.97;1.77;;;;;;;20.17;36.69;94597.47;4934988;29;20986;-86
2022/09/19 11:33:45;;;;;;;3.87;2.07;;;;;;;20.11;36.72;94594.56;4934999;29;20452;-87
2022/09/19 11:36:19;;;;;;;3.00;2.00;;;;;;;20.14;36.47;94592.53;4934700;29;20507;-87
2022/09/19 11:38:55;;;;;;;5.60;2.00;;;;;;;20.16;36.41;94579.84;4934797;29;20973;-87
2022/09/19 11:41:37;;;;;;;6.13;1.90;;;;;;;20.23;36.35;94586.84;4934800;29;20542;-87
2022/09/19 11:44:20;;;;;;;2.10;1.90;;;;;;;20.20;37.35;94576.59;4934454;29;20490;-86
2022/09/19 11:46:56;;;;;;;1.60;1.50;;;;;;;20.31;36.15;94588.56;4934527;29;20532;-86
2022/09/19 11:49:56;;;;;;;2.70;1.73;;;;;;;20.44;38.24;94582.47;4934586;29;20456;-87
2022/09/19 11:52:31;;;;;;;3.93;1.70;;;;;;;20.41;36.21;94576.53;4840988;29;21042;-86
2022/09/19 11:55:12;;;;;;;4.90;2.17;;;;;;;20.47;35.99;94574.09;4841057;29;20528;-87
2022/09/19 11:57:42;;;;;;;2.80;1.90;;;;;;;20.53;35.47;94571.47;4954810;28;20465;-86
2022/09/19 12:00:15;;;;;;;2.83;1.70;;;;;;;20.54;36.09;94566.97;4925727;28;20480;-87
2022/09/19 12:03:10;;;;;;;3.30;2.37;;;;;;;20.42;35.74;94564.03;4973347;28;20457;-87
2022/09/19 12:05:52;;;;;;;4.67;2.13;;;;;;;20.30;35.41;94562.91;4896043;29;20493;-86
2022/09/19 12:08:33;;;;;;;4.57;2.03;;;;;;;20.22;35.30;94569.22;4850666;29;20611;-86
2022/09/19 12:11:08;;;;;;;3.00;1.70;;;;;;;20.23;36.18;94568.19;4896361;29;20819;-86
2022/09/19 12:13:44;;;;;;;2.60;2.10;;;;;;;20.15;35.77;94567.53;4896465;29;20456;-87
2022/09/19 12:16:17;;;;;;;2.40;1.70;;;;;;;20.19;34.70;94558.13;4896273;29;20536;-86
2022/09/19 12:18:55;;;;;;;4.10;2.20;;;;;;;20.25;34.54;94558.19;4896185;29;20449;-87